Mukilteo, Washington
Current Conditions -  °F | °C
As of 6:09 PM on Thursday 20 Nov 2014 (Local Time) from KPAE Reporting Station
Light Rain Light Rain  
Wind Chill: 43°   Ceiling: 7000
Heat Index: 48°   Visibility: 9mi
Dew Point: 46°   Wind: 12mph
Humidity: 93%   Direction: 150°SSE
Pressure: 29.93"   Gusts: NA
Location:  47.9°N, 122.29°W
Report Text: KPAE 210209Z 15010KT 9SM -RA FEW024 SCT035 OVC070 09/08 A2993 RMK AO2 P0000 T00890078
Loading
Personal Weather Stations






























Interactive Weather Map New forecast layout! Learn more

10-Day Weather Forecast

Advertisements
Track Severe Weather on mobile